Main page
METAR-TAF:

METAR-TAF

Airports :

Kalmar Airport

Kalmar, Sweden

latitude: 56-44N, longitude: 016-18E, elevation: 16 m

Current weather observation

The report was made 29 minutes ago, at 20:50 UTC
Wind 18 kt from the Southwest
Temperature 7°C
Humidity 76%
Pressure 1000 hPa
Visibility 10 km or more
Overcast at a height of 2500 ft

METAR: ESMQ 172050Z 23018KT 9999 OVC025 07/03 Q1000

Time: 22:19 (21:19 UTC)

Forecast

The report was made 49 minutes ago, at 20:30 UTC
Forecast valid from 17 at 21 UTC to 17 at 23 UTC
Wind 15 kt from the West/Southwest
Visibility 10 km or more
Scattered clouds at a height of 3000 ft

TAF: ESMQ 172030Z 1721/1723 24015KT 9999 SCT030

Weather observations and forecasts of more than 4000 airports (METAR and TAF reports).

The available stations are represented by yellow and red dots on the map.

Hover mouse over dot to see the name of the station.

Then click to see weather observations and forecasts.

To change the map : click on the green buttons with a black cross to zoom in, on the green button with a dash to zoom out, or on the green arrows for adjacent maps.


METAR-TAF: